WetterOnline ( https://www.wetteronline.de )

Wetter aktuell Weißenburg

Aktuelles Wetter: Weißenburg (424m)

6-stündlich | Neueste Meldungen
Ortszeit Temperatur Wetter
Mi, 16.06. 14:00 27.1° C fast wolkenlos
Mi, 16.06. 8:00 18.7° C wolkig
Mi, 16.06. 2:00 14.0° C wolkig
Di, 15.06. 20:00 26.1° C leicht bewölkt
Di, 15.06. 14:00 25.3° C leicht bewölkt
Di, 15.06. 8:00 16.4° C wolkenlos
Di, 15.06. 2:00 11.9° C wolkig
Mo, 14.06. 20:00 23.9° C wolkenlos
Ortszeit Temperatur Wetter
Mi, 16.06. 16:00 28.0° C leicht bewölkt
Mi, 16.06. 15:30 28.3° C leicht bewölkt
Mi, 16.06. 15:20 28.3° C leicht bewölkt
Mi, 16.06. 15:10 27.6° C leicht bewölkt
Mi, 16.06. 15:00 28.0° C fast wolkenlos
Mi, 16.06. 14:50 28.0° C fast wolkenlos
Mi, 16.06. 14:30 27.9° C fast wolkenlos
Mi, 16.06. 14:00 27.1° C fast wolkenlos
Ortszeit Relative Feuchte Sichtweite
Mi, 16.06. 14:00 39% >70 km
Mi, 16.06. 8:00 73% 50 km
Mi, 16.06. 2:00 89% 40 km
Di, 15.06. 20:00 38% 55 km
Di, 15.06. 14:00 45% 55 km
Di, 15.06. 8:00 72% 35 km
Di, 15.06. 2:00 89% 45 km
Mo, 14.06. 20:00 36% >70 km
Ortszeit Relative Feuchte Sichtweite
Mi, 16.06. 16:00 39% 40 km
Mi, 16.06. 15:30 39% >70 km
Mi, 16.06. 15:20 39% -
Mi, 16.06. 15:10 36% -
Mi, 16.06. 15:00 41% 55 km
Mi, 16.06. 14:50 41% -
Mi, 16.06. 14:30 33% 65 km
Mi, 16.06. 14:00 39% >70 km
Ortszeit Niederschlagsmenge Niederschlagsart
Mi, 16.06. 14:00 0.0 l/m2 in 6 Std. -
Mi, 16.06. 8:00 0.0 l/m2 in 12 Std. -
Mi, 16.06. 2:00 0.0 l/m2 in 6 Std. -
Di, 15.06. 20:00 0.0 l/m2 in 12 Std. -
Di, 15.06. 14:00 0.0 l/m2 in 6 Std. -
Di, 15.06. 8:00 0.0 l/m2 in 12 Std. -
Di, 15.06. 2:00 0.0 l/m2 in 6 Std. -
Mo, 14.06. 20:00 0.0 l/m2 in 12 Std. -
Ortszeit Niederschlagsmenge Niederschlagsart
Mi, 16.06. 16:00 0.0 l/m2 in 1 Std. -
Mi, 16.06. 15:30 0.0 l/m2 in 1 Std. -
Mi, 16.06. 15:20 keine Meldung -
Mi, 16.06. 15:10 keine Meldung -
Mi, 16.06. 15:00 0.0 l/m2 in 1 Std. -
Mi, 16.06. 14:50 keine Meldung -
Mi, 16.06. 14:30 0.0 l/m2 in 1 Std. -
Mi, 16.06. 14:00 0.0 l/m2 in 1 Std. -
Ortszeit Stärke Spitze Richtung
km/h Bft. km/h Grad Sektor
Mi, 16.06. 14:00 9 2 24 120° SO
Mi, 16.06. 8:00 2 1 13 160° S
Mi, 16.06. 2:00 7 2 11 200° S
Di, 15.06. 20:00 4 1 14 280° W
Di, 15.06. 14:00 9 2 15 310° NW
Di, 15.06. 8:00 2 1 13 150° SO
Di, 15.06. 2:00 9 2 15 210° SW
Mo, 14.06. 20:00 4 1 22 340° N
Ortszeit Stärke Spitze Richtung
km/h Bft. km/h Grad Sektor
Mi, 16.06. 16:00 11 2 22 140° SO
Mi, 16.06. 15:30 7 2 22 100° O
Mi, 16.06. 15:20 7 2 - 100° O
Mi, 16.06. 15:10 13 3 - 130° SO
Mi, 16.06. 15:00 11 2 22 170° S
Mi, 16.06. 14:50 11 2 - 170° S
Mi, 16.06. 14:30 7 2 22 90° O
Mi, 16.06. 14:00 9 2 24 120° SO
Ortszeit Untergrenze Bedeckung Gattung
total tief tief mittel hoch
Mi, 16.06. 14:00 8400 m 2/8 0/8 - - -
Mi, 16.06. 8:00 6900 m 8/8 6/8 - - -
Mi, 16.06. 2:00 8400 m 8/8 0/8 - - -
Di, 15.06. 20:00 9000 m 8/8 0/8 - - -
Di, 15.06. 14:00 8100 m 7/8 0/8 - - -
Di, 15.06. 8:00 - 0/8 0/8 - - -
Di, 15.06. 2:00 10500 m 8/8 0/8 - - -
Mo, 14.06. 20:00 - 0/8 0/8 - - -
Ortszeit Bedeckungsgrad in Achtel und Wolkenuntergrenze
Mi, 16.06. 16:00 5(9000m) 7(10500m) 7(10500m)
Mi, 16.06. 15:30 2(9000m) 5(10500m) 6(12000m)
Mi, 16.06. 15:20 2(9000m) 5(10500m) 6(12000m)
Mi, 16.06. 15:10 2(9000m) 3(12000m)
Mi, 16.06. 15:00 2(9000m)
Mi, 16.06. 14:50 2(9000m)
Mi, 16.06. 14:30 1(10500m)
Mi, 16.06. 14:00 2(8400m)
Ortszeit Luftdruck NN (hPa) Tendenz (hPa in 3 Std.)
Mi, 16.06. 14:00 1014 - 0,8
Mi, 16.06. 8:00 1016 - 0,2
Mi, 16.06. 2:00 1018 - 0,3
Di, 15.06. 20:00 1016 - 0,7
Di, 15.06. 14:00 1018 - 0,4
Di, 15.06. 8:00 1020 + 0,5
Di, 15.06. 2:00 1020 - 0,2
Mo, 14.06. 20:00 1018 - 0,9
Ortszeit Luftdruck NN (hPa) Tendenz (hPa in 3 Std.)
Mi, 16.06. 16:00 1013 - 1,2
Mi, 16.06. 15:30 1013 - 1,2
Mi, 16.06. 15:20 1013 keine Meldung
Mi, 16.06. 15:10 1013 keine Meldung
Mi, 16.06. 15:00 1013 - 1,1
Mi, 16.06. 14:50 1013 keine Meldung
Mi, 16.06. 14:30 1014 - 0,9
Mi, 16.06. 14:00 1014 - 0,8
Ortszeit Schneehöhe (cm)
Mi, 16.06. 14:00 -
Mi, 16.06. 8:00 -
Mi, 16.06. 2:00 -
Di, 15.06. 20:00 -
Di, 15.06. 14:00 -
Di, 15.06. 8:00 -
Di, 15.06. 2:00 -
Mo, 14.06. 20:00 -
Ortszeit Schneehöhe (cm)
Mi, 16.06. 16:00 -
Mi, 16.06. 15:30 -
Mi, 16.06. 15:20 -
Mi, 16.06. 15:10 -
Mi, 16.06. 15:00 -
Mi, 16.06. 14:50 -
Mi, 16.06. 14:30 -
Mi, 16.06. 14:00 -
Link zu dieser Seite / Seite empfehlen

Das Wetter in ...